createdAt,value
2022-09-27T00:01:18.034Z,1.27
2022-09-27T00:03:44.464Z,1.38
2022-09-27T00:06:13.551Z,1.63
2022-09-27T00:08:39.938Z,1.63
2022-09-27T00:11:07.940Z,1.85
2022-09-27T00:13:34.409Z,1.80
2022-09-27T00:16:01.433Z,1.58
2022-09-27T00:18:27.736Z,2.50
2022-09-27T00:20:54.318Z,2.10
2022-09-27T00:23:20.643Z,2.65
2022-09-27T00:25:56.959Z,2.22
2022-09-27T00:28:23.386Z,2.20
2022-09-27T00:30:49.811Z,2.15
2022-09-27T00:33:16.163Z,2.00
2022-09-27T00:35:42.491Z,2.08
2022-09-27T00:38:08.832Z,2.25
2022-09-27T00:40:35.191Z,1.95
2022-09-27T00:43:01.558Z,1.90
2022-09-27T00:45:27.945Z,1.83
2022-09-27T00:47:56.399Z,1.98
2022-09-27T00:50:26.340Z,1.83
2022-09-27T00:52:59.914Z,1.67
2022-09-27T00:55:29.326Z,1.70
2022-09-27T01:00:22.539Z,1.60
2022-09-27T01:02:50.629Z,1.50
2022-09-27T01:05:20.288Z,1.50
2022-09-27T01:07:46.692Z,1.58
2022-09-27T01:10:14.443Z,1.23
2022-09-27T01:13:00.625Z,1.30
2022-09-27T01:15:36.457Z,1.55
2022-09-27T01:18:15.072Z,1.30
2022-09-27T01:20:59.815Z,1.40
2022-09-27T01:23:29.192Z,1.50
2022-09-27T01:28:26.310Z,1.65
2022-09-27T01:30:55.847Z,1.27
2022-09-27T01:33:44.348Z,1.77
2022-09-27T01:36:21.051Z,1.30
2022-09-27T01:39:06.314Z,1.20
2022-09-27T01:41:43.524Z,1.30
2022-09-27T01:44:28.203Z,1.50
2022-09-27T01:47:05.567Z,1.50
2022-09-27T01:49:35.954Z,1.48
2022-09-27T01:52:04.079Z,1.58
2022-09-27T01:54:32.888Z,1.70
2022-09-27T01:57:00.555Z,1.40
2022-09-27T01:59:29.931Z,1.70
2022-09-27T02:04:24.812Z,1.38
2022-09-27T02:06:54.655Z,1.50
2022-09-27T02:09:28.891Z,1.42
2022-09-27T02:11:58.728Z,1.42
2022-09-27T02:14:27.806Z,1.27
2022-09-27T02:16:56.806Z,1.35
2022-09-27T02:19:42.106Z,1.60
2022-09-27T02:22:14.468Z,1.25
2022-09-27T02:24:43.389Z,1.63
2022-09-27T02:27:29.976Z,1.10
2022-09-27T02:30:06.160Z,1.60
2022-09-27T02:32:32.961Z,1.50
2022-09-27T02:35:00.834Z,1.52
2022-09-27T02:37:27.335Z,1.25
2022-09-27T02:39:54.011Z,1.30
2022-09-27T02:42:20.506Z,1.65
2022-09-27T02:44:46.888Z,1.42
2022-09-27T02:47:13.206Z,1.35
2022-09-27T02:49:39.463Z,1.48
2022-09-27T02:52:18.806Z,1.58
2022-09-27T02:57:23.861Z,1.92
2022-09-27T02:59:56.965Z,1.58
2022-09-27T03:02:36.303Z,1.20
2022-09-27T03:07:29.491Z,1.33
2022-09-27T03:09:55.836Z,1.60
2022-09-27T03:12:28.124Z,1.90
2022-09-27T03:14:58.780Z,1.35
2022-09-27T03:17:25.260Z,1.48
2022-09-27T03:19:51.676Z,2.08
2022-09-27T03:22:18.036Z,1.30
2022-09-27T03:24:44.783Z,1.55
2022-09-27T03:27:11.729Z,1.40
2022-09-27T03:29:38.085Z,1.08
2022-09-27T03:32:04.473Z,1.58
2022-09-27T03:34:30.844Z,1.50
2022-09-27T03:36:57.396Z,1.90
2022-09-27T03:39:23.730Z,1.60
2022-09-27T03:41:50.159Z,1.70
2022-09-27T03:44:16.541Z,1.38
2022-09-27T03:46:43.063Z,1.50
2022-09-27T03:49:09.380Z,1.70
2022-09-27T03:51:35.705Z,1.35
2022-09-27T03:54:02.109Z,1.60
2022-09-27T03:56:28.414Z,1.30
2022-09-27T03:58:54.747Z,1.52
2022-09-27T04:01:21.205Z,1.70
2022-09-27T04:03:47.617Z,1.60
2022-09-27T04:06:14.965Z,1.48
2022-09-27T04:08:41.267Z,1.60
2022-09-27T04:11:07.703Z,1.60
2022-09-27T04:13:34.494Z,1.70
2022-09-27T04:16:02.839Z,1.80
2022-09-27T04:18:29.431Z,2.28
2022-09-27T04:20:55.865Z,1.85
2022-09-27T04:23:27.648Z,1.95
2022-09-27T04:25:55.981Z,1.55
2022-09-27T04:28:22.668Z,1.65
2022-09-27T04:30:49.144Z,1.42
2022-09-27T04:33:15.855Z,1.60
2022-09-27T04:36:01.345Z,1.42
2022-09-27T04:38:27.681Z,1.83
2022-09-27T04:40:54.045Z,1.70
2022-09-27T04:43:20.437Z,1.88
2022-09-27T04:45:46.879Z,1.85
2022-09-27T04:48:13.475Z,2.08
2022-09-27T04:50:40.324Z,1.73
2022-09-27T04:53:06.707Z,1.95
2022-09-27T04:55:33.231Z,2.05
2022-09-27T04:58:01.307Z,1.98
2022-09-27T05:00:29.260Z,1.90
2022-09-27T05:02:55.637Z,2.70
2022-09-27T05:05:22.110Z,2.53
2022-09-27T05:07:48.449Z,3.08
2022-09-27T05:10:14.810Z,3.17
2022-09-27T05:12:41.220Z,3.10
2022-09-27T05:15:07.947Z,2.70
2022-09-27T05:17:34.274Z,2.10
2022-09-27T05:20:00.655Z,2.30
2022-09-27T05:22:27.063Z,2.10
2022-09-27T05:24:53.374Z,2.00
2022-09-27T05:27:20.578Z,2.28
2022-09-27T05:29:47.355Z,2.00
2022-09-27T05:32:14.166Z,2.10
2022-09-27T05:34:40.502Z,2.40
2022-09-27T05:37:07.002Z,1.95
2022-09-27T05:39:33.413Z,2.00
2022-09-27T05:41:59.931Z,2.05
2022-09-27T05:44:26.447Z,1.95
2022-09-27T05:46:52.853Z,1.83
2022-09-27T05:49:20.249Z,1.75
2022-09-27T05:51:47.646Z,1.73
2022-09-27T05:54:14.108Z,1.77
2022-09-27T05:56:40.423Z,1.60
2022-09-27T05:59:06.783Z,1.90
2022-09-27T06:01:38.691Z,1.90
2022-09-27T06:04:05.733Z,1.67
2022-09-27T06:06:34.247Z,1.80
2022-09-27T06:09:01.617Z,1.60
2022-09-27T06:11:28.524Z,1.92
2022-09-27T06:13:55.027Z,1.80
2022-09-27T06:16:21.463Z,2.22
2022-09-27T06:18:48.194Z,2.20
2022-09-27T06:21:14.971Z,2.28
2022-09-27T06:23:41.836Z,2.17
2022-09-27T06:26:08.244Z,2.65
2022-09-27T06:28:37.787Z,2.95
2022-09-27T06:31:08.900Z,3.25
2022-09-27T06:33:35.549Z,3.10
2022-09-27T06:36:04.342Z,2.95
2022-09-27T06:38:30.849Z,3.08
2022-09-27T06:41:00.987Z,3.08
2022-09-27T06:43:27.599Z,3.38
2022-09-27T06:45:54.954Z,3.40
2022-09-27T06:48:21.333Z,3.30
2022-09-27T06:50:49.253Z,3.25
2022-09-27T06:53:16.580Z,3.53
2022-09-27T06:55:43.146Z,3.00
2022-09-27T06:58:29.281Z,3.25
2022-09-27T07:00:55.739Z,3.63
2022-09-27T07:03:23.224Z,3.40
2022-09-27T07:05:57.559Z,3.60
2022-09-27T07:08:26.450Z,3.72
2022-09-27T07:10:54.760Z,3.53
2022-09-27T07:13:21.242Z,3.70
2022-09-27T07:15:47.606Z,3.17
2022-09-27T07:18:13.973Z,3.47
2022-09-27T07:20:40.712Z,3.50
2022-09-27T07:23:08.365Z,3.35
2022-09-27T07:25:35.073Z,3.50
2022-09-27T07:28:02.639Z,3.30
2022-09-27T07:30:29.496Z,2.90
2022-09-27T07:32:59.469Z,3.33
2022-09-27T07:35:26.017Z,3.30
2022-09-27T07:37:52.558Z,3.13
2022-09-27T07:40:19.782Z,3.45
2022-09-27T07:42:46.166Z,3.63
2022-09-27T07:45:12.796Z,3.60
2022-09-27T07:47:39.620Z,3.63
2022-09-27T07:50:06.954Z,3.60
2022-09-27T07:52:43.205Z,3.60
2022-09-27T07:55:10.704Z,3.60
2022-09-27T07:57:37.658Z,3.85
2022-09-27T08:00:04.862Z,3.80
2022-09-27T08:02:32.927Z,3.50
2022-09-27T08:04:59.713Z,3.72
2022-09-27T08:07:26.499Z,3.30
2022-09-27T08:09:53.332Z,3.40
2022-09-27T08:12:21.505Z,3.40
2022-09-27T08:14:48.557Z,3.55
2022-09-27T08:17:15.291Z,3.72
2022-09-27T08:19:41.871Z,3.72
2022-09-27T08:22:08.262Z,4.10
2022-09-27T08:24:34.612Z,3.70
2022-09-27T08:27:02.252Z,4.07
2022-09-27T08:29:28.591Z,4.13
2022-09-27T08:31:55.034Z,3.78
2022-09-27T08:34:21.779Z,4.00
2022-09-27T08:36:48.415Z,4.05
2022-09-27T08:39:14.910Z,4.60
2022-09-27T08:41:52.846Z,4.40
2022-09-27T08:44:34.516Z,4.35
2022-09-27T08:47:11.361Z,3.80
2022-09-27T08:49:43.334Z,3.70
2022-09-27T08:52:17.794Z,3.42
2022-09-27T08:54:45.063Z,3.38
2022-09-27T08:57:12.731Z,3.45
2022-09-27T08:59:45.694Z,3.45
2022-09-27T09:02:24.536Z,3.83
2022-09-27T09:04:52.702Z,4.75
2022-09-27T09:07:24.995Z,4.90
2022-09-27T09:10:02.308Z,4.63
2022-09-27T09:12:46.909Z,4.88
2022-09-27T09:15:22.756Z,5.15
2022-09-27T09:18:09.151Z,5.10
2022-09-27T09:20:55.747Z,4.95
2022-09-27T09:23:22.303Z,5.10
2022-09-27T09:25:57.734Z,4.78
2022-09-27T09:28:27.290Z,4.93
2022-09-27T09:30:56.716Z,4.90
2022-09-27T09:33:25.495Z,4.57
2022-09-27T09:35:59.524Z,4.80
2022-09-27T09:38:34.647Z,4.38
2022-09-27T09:41:05.346Z,6.88
2022-09-27T09:43:49.801Z,4.78
2022-09-27T09:46:20.202Z,5.28
2022-09-27T09:48:52.631Z,4.63
2022-09-27T09:51:25.204Z,5.00
2022-09-27T09:53:57.651Z,4.35
2022-09-27T09:56:26.230Z,4.47
2022-09-27T09:58:57.834Z,4.32
2022-09-27T10:01:35.193Z,4.45
2022-09-27T10:04:01.846Z,3.85
2022-09-27T10:06:29.045Z,3.13
2022-09-27T10:08:55.859Z,3.38
2022-09-27T10:11:26.566Z,3.10
2022-09-27T10:13:53.476Z,2.60
2022-09-27T10:16:20.868Z,2.72
2022-09-27T10:18:50.045Z,2.30
2022-09-27T10:24:04.494Z,2.13
2022-09-27T10:26:31.839Z,2.40
2022-09-27T10:28:58.455Z,2.35
2022-09-27T10:31:25.159Z,2.40
2022-09-27T10:33:56.910Z,2.10
2022-09-27T10:36:30.915Z,2.10
2022-09-27T10:38:58.417Z,1.98
2022-09-27T10:41:26.588Z,1.90
2022-09-27T10:43:53.027Z,1.90
2022-09-27T10:46:31.613Z,2.25
2022-09-27T10:49:17.280Z,1.48
2022-09-27T10:51:43.964Z,1.77
2022-09-27T10:54:19.407Z,1.63
2022-09-27T10:56:53.914Z,1.75
2022-09-27T10:59:20.330Z,1.75
2022-09-27T11:01:48.440Z,1.60
2022-09-27T11:04:19.853Z,1.60
2022-09-27T11:06:46.393Z,1.50
2022-09-27T11:09:23.248Z,1.35
2022-09-27T11:11:50.793Z,1.85
2022-09-27T11:14:18.527Z,1.98
2022-09-27T11:17:04.595Z,1.60
2022-09-27T11:19:43.155Z,1.92
2022-09-27T11:22:18.567Z,2.00
2022-09-27T11:24:54.703Z,1.83
2022-09-27T11:27:39.862Z,2.20
2022-09-27T11:30:13.063Z,2.22
2022-09-27T11:32:51.675Z,1.88
2022-09-27T11:35:47.166Z,1.83
2022-09-27T11:38:34.701Z,1.65
2022-09-27T11:41:23.291Z,2.20
2022-09-27T11:44:08.503Z,2.00
2022-09-27T11:46:42.001Z,1.83
2022-09-27T11:49:28.830Z,2.30
2022-09-27T11:52:01.137Z,2.00
2022-09-27T11:54:46.490Z,2.35
2022-09-27T11:57:12.869Z,1.90
2022-09-27T11:59:51.135Z,2.10
2022-09-27T12:02:17.553Z,2.03
2022-09-27T12:05:01.844Z,1.80
2022-09-27T12:07:36.956Z,2.10
2022-09-27T12:10:13.442Z,1.50
2022-09-27T12:12:41.383Z,2.05
2022-09-27T12:15:16.138Z,1.95
2022-09-27T12:17:44.406Z,2.33
2022-09-27T12:20:17.307Z,2.67
2022-09-27T12:22:58.485Z,2.70
2022-09-27T12:25:27.208Z,2.45
2022-09-27T12:28:12.000Z,2.30
2022-09-27T12:30:40.219Z,2.13
2022-09-27T12:33:22.446Z,2.45
2022-09-27T12:35:54.135Z,2.80
2022-09-27T12:38:33.853Z,2.35
2022-09-27T12:41:01.518Z,3.45
2022-09-27T12:43:28.855Z,3.05
2022-09-27T12:46:01.275Z,2.85
2022-09-27T12:48:33.672Z,2.88
2022-09-27T12:51:07.241Z,2.83
2022-09-27T12:54:01.064Z,2.67
2022-09-27T12:56:46.203Z,2.88
2022-09-27T12:59:42.194Z,2.75
2022-09-27T13:02:27.323Z,3.10
2022-09-27T13:04:53.687Z,3.20
2022-09-27T13:07:38.261Z,2.92
2022-09-27T13:10:19.227Z,2.75
2022-09-27T13:12:53.377Z,2.85
2022-09-27T13:15:19.702Z,2.45
2022-09-27T13:17:59.856Z,2.50
2022-09-27T13:20:35.415Z,2.63
2022-09-27T13:23:02.915Z,2.70
2022-09-27T13:25:49.630Z,2.53
2022-09-27T13:28:28.547Z,2.75
2022-09-27T13:30:55.300Z,2.20
2022-09-27T13:33:29.399Z,2.50
2022-09-27T13:36:14.475Z,2.40
2022-09-27T13:38:50.889Z,2.00
2022-09-27T13:41:18.391Z,2.50
2022-09-27T13:43:59.812Z,2.33
2022-09-27T13:46:26.908Z,2.38
2022-09-27T13:48:59.084Z,2.40
2022-09-27T13:51:28.759Z,2.47
2022-09-27T13:54:06.605Z,2.20
2022-09-27T13:56:36.293Z,2.80
2022-09-27T13:59:03.376Z,2.85
2022-09-27T14:01:39.890Z,2.95
2022-09-27T14:04:13.167Z,3.28
2022-09-27T14:06:43.512Z,3.67
2022-09-27T14:09:21.379Z,3.38
2022-09-27T14:11:56.575Z,4.13
2022-09-27T14:14:24.819Z,3.65
2022-09-27T14:16:51.177Z,3.53
2022-09-27T14:19:22.069Z,4.22
2022-09-27T14:21:48.499Z,4.22
2022-09-27T14:24:20.135Z,3.63
2022-09-27T14:26:46.551Z,4.45
2022-09-27T14:29:22.597Z,4.20
2022-09-27T14:32:05.502Z,4.20
2022-09-27T14:34:31.977Z,4.20
2022-09-27T14:37:17.118Z,3.97
2022-09-27T14:39:43.571Z,3.92
2022-09-27T14:42:20.869Z,3.95
2022-09-27T14:44:47.680Z,3.67
2022-09-27T14:47:18.711Z,4.10
2022-09-27T14:49:52.581Z,4.07
2022-09-27T14:52:30.113Z,3.35
2022-09-27T14:54:58.248Z,4.25
2022-09-27T14:57:25.351Z,3.80
2022-09-27T14:59:51.703Z,3.50
2022-09-27T15:02:22.323Z,3.70
2022-09-27T15:04:51.343Z,3.83
2022-09-27T15:07:19.619Z,4.15
2022-09-27T15:09:47.912Z,3.15
2022-09-27T15:12:19.087Z,3.25
2022-09-27T15:14:49.439Z,3.10
2022-09-27T15:17:20.939Z,3.33
2022-09-27T15:19:57.569Z,2.58
2022-09-27T15:22:34.720Z,3.05
2022-09-27T15:25:21.187Z,3.00
2022-09-27T15:27:49.296Z,2.67
2022-09-27T15:30:20.602Z,2.85
2022-09-27T15:32:51.608Z,2.90
2022-09-27T15:35:21.820Z,2.58
2022-09-27T15:37:49.552Z,2.88
2022-09-27T15:40:16.507Z,2.47
2022-09-27T15:42:57.475Z,3.33
2022-09-27T15:45:31.214Z,3.10
2022-09-27T15:48:05.841Z,2.90
2022-09-27T15:50:32.743Z,3.00
2022-09-27T15:53:02.812Z,2.88
2022-09-27T15:55:29.527Z,3.00
2022-09-27T15:58:00.252Z,3.05
2022-09-27T16:00:26.722Z,2.70
2022-09-27T16:02:53.861Z,4.68
2022-09-27T16:05:20.263Z,3.40
2022-09-27T16:07:46.687Z,2.85
2022-09-27T16:10:14.690Z,2.70
2022-09-27T16:12:41.580Z,2.40
2022-09-27T16:15:08.055Z,2.38
2022-09-27T16:17:37.844Z,2.30
2022-09-27T16:20:04.897Z,2.33
2022-09-27T16:22:31.375Z,2.72
2022-09-27T16:24:57.732Z,2.83
2022-09-27T16:27:24.378Z,2.28
2022-09-27T16:29:50.875Z,2.92
2022-09-27T16:32:17.215Z,2.70
2022-09-27T16:34:43.555Z,2.72
2022-09-27T16:37:11.151Z,2.53
2022-09-27T16:39:39.051Z,2.75
2022-09-27T16:42:07.157Z,2.60
2022-09-27T16:44:36.754Z,2.60
2022-09-27T16:47:03.838Z,2.70
2022-09-27T16:49:48.919Z,2.90
2022-09-27T16:52:16.122Z,2.88
2022-09-27T16:54:46.696Z,2.90
2022-09-27T16:57:32.922Z,3.47
2022-09-27T17:00:05.960Z,2.72
2022-09-27T17:02:32.779Z,3.45
2022-09-27T17:04:59.091Z,3.08
2022-09-27T17:07:25.569Z,4.03
2022-09-27T17:09:51.920Z,3.47
2022-09-27T17:12:18.340Z,3.17
2022-09-27T17:14:44.711Z,3.85
2022-09-27T17:17:11.137Z,3.50
2022-09-27T17:19:40.816Z,3.80
2022-09-27T17:22:07.604Z,3.65
2022-09-27T17:24:34.499Z,3.55
2022-09-27T17:27:01.543Z,3.88
2022-09-27T17:29:27.857Z,3.47
2022-09-27T17:31:54.397Z,3.80
2022-09-27T17:34:21.763Z,3.67
2022-09-27T17:36:49.377Z,3.80
2022-09-27T17:39:16.871Z,4.00
2022-09-27T17:41:43.772Z,4.28
2022-09-27T17:44:12.676Z,4.60
2022-09-27T17:46:39.344Z,4.00
2022-09-27T17:49:24.622Z,3.95
2022-09-27T17:51:51.884Z,3.60
2022-09-27T17:54:19.628Z,4.40
2022-09-27T17:56:50.628Z,4.03
2022-09-27T17:59:17.575Z,4.65
2022-09-27T18:01:44.863Z,4.35
2022-09-27T18:04:13.246Z,4.03
2022-09-27T18:06:40.706Z,4.18
2022-09-27T18:09:10.656Z,4.10
2022-09-27T18:11:38.176Z,4.07
2022-09-27T18:14:08.633Z,4.47
2022-09-27T18:16:39.738Z,4.00
2022-09-27T18:19:12.821Z,4.03
2022-09-27T18:21:50.808Z,3.88
2022-09-27T18:24:17.733Z,3.50
2022-09-27T18:26:46.457Z,3.90
2022-09-27T18:29:14.508Z,3.78
2022-09-27T18:31:47.994Z,3.35
2022-09-27T18:34:19.167Z,4.07
2022-09-27T18:36:49.534Z,4.57
2022-09-27T18:39:19.567Z,4.32
2022-09-27T18:41:48.697Z,4.28
2022-09-27T18:44:16.138Z,3.55
2022-09-27T18:46:42.851Z,4.03
2022-09-27T18:49:13.661Z,4.10
2022-09-27T18:51:49.000Z,5.07
2022-09-27T18:54:20.146Z,4.68
2022-09-27T18:56:48.526Z,3.92
2022-09-27T18:59:15.703Z,3.88
2022-09-27T19:01:45.213Z,4.25
2022-09-27T19:04:13.703Z,4.30
2022-09-27T19:06:40.755Z,4.63
2022-09-27T19:09:07.937Z,4.35
2022-09-27T19:11:34.354Z,4.18
2022-09-27T19:14:01.412Z,4.00
2022-09-27T19:16:28.688Z,4.28
2022-09-27T19:18:55.729Z,4.88
2022-09-27T19:21:26.989Z,4.47
2022-09-27T19:23:53.836Z,5.00
2022-09-27T19:26:21.470Z,5.00
2022-09-27T19:28:51.428Z,4.57
2022-09-27T19:31:20.224Z,4.88
2022-09-27T19:33:47.150Z,4.32
2022-09-27T19:36:15.460Z,4.60
2022-09-27T19:38:42.007Z,4.38
2022-09-27T19:41:10.413Z,5.43
2022-09-27T19:43:37.081Z,4.70
2022-09-27T19:46:06.768Z,4.55
2022-09-27T19:48:33.183Z,4.45
2022-09-27T19:51:00.236Z,4.90
2022-09-27T19:53:31.250Z,4.70
2022-09-27T19:56:02.519Z,5.20
2022-09-27T19:58:29.855Z,4.28
2022-09-27T20:01:03.785Z,4.63
2022-09-27T20:03:30.360Z,4.55
2022-09-27T20:05:57.448Z,4.65
2022-09-27T20:08:24.138Z,4.88
2022-09-27T20:10:54.143Z,4.88
2022-09-27T20:13:21.111Z,5.38
2022-09-27T20:15:47.439Z,5.00
2022-09-27T20:18:13.833Z,4.90
2022-09-27T20:20:40.205Z,5.00
2022-09-27T20:23:06.540Z,4.07
2022-09-27T20:25:32.849Z,4.50
2022-09-27T20:27:59.218Z,4.55
2022-09-27T20:30:25.615Z,4.55
2022-09-27T20:33:12.530Z,4.63
2022-09-27T20:35:38.908Z,4.57
2022-09-27T20:38:05.306Z,4.93
2022-09-27T20:40:31.723Z,4.30
2022-09-27T20:42:58.096Z,4.25
2022-09-27T20:45:24.669Z,4.82
2022-09-27T20:47:51.202Z,4.82
2022-09-27T20:50:17.639Z,4.45
2022-09-27T20:52:44.216Z,4.25
2022-09-27T20:55:11.774Z,5.20
2022-09-27T20:57:56.555Z,4.30
2022-09-27T21:00:23.907Z,5.15
2022-09-27T21:02:50.334Z,4.40
2022-09-27T21:05:16.728Z,4.45
2022-09-27T21:07:43.343Z,4.60
2022-09-27T21:10:09.829Z,5.43
2022-09-27T21:12:36.979Z,5.32
2022-09-27T21:15:03.466Z,4.93
2022-09-27T21:17:29.798Z,5.65
2022-09-27T21:19:56.280Z,4.60
2022-09-27T21:22:23.007Z,5.50
2022-09-27T21:24:49.332Z,5.53
2022-09-27T21:27:15.665Z,5.65
2022-09-27T21:29:42.024Z,5.57
2022-09-27T21:32:08.359Z,5.28
2022-09-27T21:34:36.524Z,5.35
2022-09-27T21:37:04.473Z,5.15
2022-09-27T21:39:32.312Z,5.70
2022-09-27T21:41:59.482Z,5.53
2022-09-27T21:44:25.939Z,5.50
2022-09-27T21:46:52.439Z,5.20
2022-09-27T21:49:18.846Z,4.63
2022-09-27T21:51:45.396Z,5.53
2022-09-27T21:54:15.346Z,5.22
2022-09-27T21:56:42.408Z,4.90
2022-09-27T21:59:14.035Z,5.07
2022-09-27T22:01:42.296Z,6.07
2022-09-27T22:04:08.664Z,5.40
2022-09-27T22:06:36.803Z,4.93
2022-09-27T22:09:04.464Z,5.15
2022-09-27T22:11:32.578Z,4.90
2022-09-27T22:13:59.291Z,4.80
2022-09-27T22:16:30.180Z,4.50
2022-09-27T22:18:57.068Z,4.13
2022-09-27T22:21:28.065Z,4.80
2022-09-27T22:23:55.207Z,4.40
2022-09-27T22:26:22.907Z,3.95
2022-09-27T22:28:49.944Z,3.85
2022-09-27T22:31:18.940Z,3.60
2022-09-27T22:33:58.759Z,3.40
2022-09-27T22:36:25.817Z,3.55
2022-09-27T22:38:52.544Z,3.47
2022-09-27T22:41:19.559Z,3.78
2022-09-27T22:43:46.491Z,3.80
2022-09-27T22:46:13.210Z,4.00
2022-09-27T22:48:39.617Z,3.55
2022-09-27T22:51:06.764Z,3.70
2022-09-27T22:53:33.265Z,3.25
2022-09-27T22:56:04.035Z,3.50
2022-09-27T22:58:31.133Z,3.38
2022-09-27T23:00:57.483Z,3.80
2022-09-27T23:03:23.934Z,3.30
2022-09-27T23:05:50.391Z,3.20
2022-09-27T23:08:16.838Z,3.70
2022-09-27T23:10:43.652Z,3.53
2022-09-27T23:13:10.503Z,3.70
2022-09-27T23:15:36.848Z,3.70
2022-09-27T23:18:03.344Z,3.67
2022-09-27T23:20:30.170Z,4.00
2022-09-27T23:22:56.535Z,3.65
2022-09-27T23:25:23.267Z,4.30
2022-09-27T23:27:50.874Z,3.90
2022-09-27T23:30:19.309Z,4.22
2022-09-27T23:32:45.894Z,4.25
2022-09-27T23:35:12.817Z,4.10
2022-09-27T23:37:39.747Z,4.05
2022-09-27T23:40:06.582Z,3.92
2022-09-27T23:42:33.014Z,4.20
2022-09-27T23:45:00.487Z,4.60
2022-09-27T23:47:27.309Z,4.15
2022-09-27T23:49:53.813Z,4.30
2022-09-27T23:52:20.153Z,3.97
2022-09-27T23:54:46.515Z,4.15
2022-09-27T23:57:12.829Z,4.60
2022-09-27T23:59:39.233Z,4.03
